Time;durP1;ratioP1;P1;durP2;ratioP2;P2;SDS_P1;SDS_P2;PMS_P1;PMS_P2;Temp;Humidity;BMP_temperature;BMP_pressure;BME280_temperature;BME280_humidity;BME280_pressure;Samples;Min_cycle;Max_cycle;Signal;HPM_P1;HPM_P2
2023/04/23 00:00:29;;;;;;;34.90;11.90;;;;;;;11.53;67.19;100819.31;5008423;28;20030;-81
2023/04/23 00:02:56;;;;;;;54.42;17.15;;;;;;;11.60;66.88;100832.13;5007371;28;20077;-81
2023/04/23 00:05:26;;;;;;;26.67;10.95;;;;;;;11.48;67.53;100814.28;5009800;28;20048;-80
2023/04/23 00:07:53;;;;;;;36.65;12.75;;;;;;;11.49;67.68;100824.09;5010134;28;20105;-81
2023/04/23 00:10:18;;;;;;;78.57;15.32;;;;;;;11.47;67.61;100826.03;5008768;28;20088;-81
2023/04/23 00:12:44;;;;;;;22.67;9.70;;;;;;;11.43;68.07;100822.78;5009264;28;20038;-81
2023/04/23 00:15:11;;;;;;;23.83;9.65;;;;;;;11.45;67.54;100822.63;5009083;28;20087;-81
2023/04/23 00:17:37;;;;;;;33.67;9.25;;;;;;;11.31;66.86;100821.03;5022459;28;20145;-79
2023/04/23 00:20:02;;;;;;;29.23;9.98;;;;;;;11.04;67.12;100809.00;5028236;28;20030;-79
2023/04/23 00:22:28;;;;;;;28.33;11.43;;;;;;;11.06;67.69;100821.34;5030771;28;20032;-81
2023/04/23 00:24:53;;;;;;;31.20;16.10;;;;;;;11.15;67.17;100817.03;5019474;28;20040;-81
2023/04/23 00:27:20;;;;;;;35.97;12.48;;;;;;;11.16;67.73;100821.47;5009207;28;20030;-82
2023/04/23 00:29:45;;;;;;;33.83;13.65;;;;;;;11.12;67.62;100818.16;5008802;28;20020;-82
2023/04/23 00:32:11;;;;;;;39.13;14.52;;;;;;;11.09;67.65;100820.22;5008614;28;20121;-82
2023/04/23 00:34:37;;;;;;;29.35;12.55;;;;;;;11.10;68.08;100821.97;5008542;28;20084;-81
2023/04/23 00:37:05;;;;;;;25.92;12.50;;;;;;;11.10;68.08;100819.25;5008272;28;20034;-81
2023/04/23 00:39:31;;;;;;;39.00;13.90;;;;;;;11.04;68.40;100806.28;5008029;28;20441;-81
2023/04/23 00:41:59;;;;;;;34.90;12.02;;;;;;;11.12;67.87;100815.47;5008406;28;20018;-81
2023/04/23 00:44:24;;;;;;;35.33;12.70;;;;;;;11.03;68.58;100809.97;5008181;28;20559;-81
2023/04/23 00:46:51;;;;;;;38.45;11.70;;;;;;;11.08;67.94;100818.50;5008254;28;20041;-81
2023/04/23 00:49:17;;;;;;;30.30;13.13;;;;;;;11.10;67.50;100816.56;5006229;28;20049;-81
2023/04/23 00:51:43;;;;;;;42.00;12.82;;;;;;;11.11;68.04;100815.56;5008791;28;20049;-81
2023/04/23 00:54:08;;;;;;;29.33;11.30;;;;;;;11.13;67.71;100827.09;5008370;28;20025;-80
2023/04/23 00:56:34;;;;;;;33.13;11.23;;;;;;;11.11;67.78;100824.50;5008087;28;20030;-81
2023/04/23 00:59:02;;;;;;;25.00;12.10;;;;;;;11.01;67.27;100806.53;5007986;28;20034;-81
2023/04/23 01:01:29;;;;;;;41.75;11.50;;;;;;;11.05;67.77;100824.13;4989689;28;20809;-80
2023/04/23 01:03:55;;;;;;;28.88;10.02;;;;;;;10.93;67.27;100826.84;5008541;28;20026;-81
2023/04/23 01:06:21;;;;;;;18.77;10.27;;;;;;;10.83;67.82;100815.09;5008168;28;20045;-83
2023/04/23 01:08:46;;;;;;;19.77;9.55;;;;;;;10.86;67.96;100827.44;5008235;28;20022;-83
2023/04/23 01:11:15;;;;;;;22.77;10.00;;;;;;;10.78;67.89;100806.53;5008521;28;20040;-82
2023/04/23 01:13:42;;;;;;;23.38;9.77;;;;;;;10.77;68.23;100823.66;5017131;28;20595;-81
2023/04/23 01:16:08;;;;;;;34.83;12.07;;;;;;;10.79;68.45;100819.00;5024225;28;20022;-79
2023/04/23 01:18:34;;;;;;;29.25;11.27;;;;;;;10.79;68.71;100819.00;5016874;28;20030;-81
2023/04/23 01:21:00;;;;;;;39.60;13.15;;;;;;;10.77;68.39;100820.09;5007908;28;20487;-82
2023/04/23 01:23:26;;;;;;;40.92;16.98;;;;;;;10.77;68.79;100818.25;5008474;28;20103;-81
2023/04/23 01:25:53;;;;;;;40.83;17.25;;;;;;;10.65;69.42;100821.94;5007706;28;20038;-80
2023/04/23 01:28:19;;;;;;;36.72;16.50;;;;;;;10.62;69.66;100816.78;5007747;28;20034;-82
2023/04/23 01:30:46;;;;;;;37.05;14.45;;;;;;;10.61;69.79;100820.44;5012137;28;20036;-81
2023/04/23 01:33:12;;;;;;;27.15;13.75;;;;;;;10.59;70.20;100822.41;5011999;28;20048;-81
2023/04/23 01:35:40;;;;;;;22.58;10.80;;;;;;;10.61;70.05;100820.44;5011783;28;20052;-80
2023/04/23 01:38:08;;;;;;;28.45;11.32;;;;;;;10.65;69.27;100827.31;5011931;28;20101;-80
2023/04/23 01:40:33;;;;;;;33.10;12.52;;;;;;;10.67;69.29;100825.34;5012071;28;20030;-80
2023/04/23 01:42:59;;;;;;;41.58;12.23;;;;;;;10.66;68.89;100820.97;5012037;28;20030;-82
2023/04/23 01:45:24;;;;;;;29.08;11.55;;;;;;;10.67;68.89;100811.88;5011955;28;20041;-81
2023/04/23 01:47:51;;;;;;;27.05;10.95;;;;;;;10.78;68.89;100820.00;5012057;28;20033;-82
2023/04/23 01:50:16;;;;;;;30.75;10.57;;;;;;;10.84;68.50;100815.94;5012220;28;20505;-82
2023/04/23 01:52:43;;;;;;;38.70;11.75;;;;;;;10.72;68.32;100815.09;5011966;28;20049;-81
2023/04/23 01:55:09;;;;;;;18.30;9.73;;;;;;;10.68;67.91;100827.06;5010843;28;20026;-84
2023/04/23 01:57:35;;;;;;;34.50;11.45;;;;;;;10.67;68.23;100822.66;5011305;28;20129;-83
2023/04/23 02:00:07;;;;;;;31.73;10.82;;;;;;;10.69;68.79;100826.09;5011647;28;20033;-84
2023/04/23 02:02:34;;;;;;;30.50;12.38;;;;;;;10.68;69.28;100815.44;5012334;28;20118;-82
2023/04/23 02:05:03;;;;;;;38.65;12.68;;;;;;;10.62;69.18;100822.16;5012687;28;20053;-82
2023/04/23 02:07:32;;;;;;;23.63;12.98;;;;;;;10.65;69.89;100827.31;5020298;28;20030;-83
2023/04/23 02:09:58;;;;;;;42.40;16.40;;;;;;;10.65;70.40;100823.75;4999168;28;20077;-82
2023/04/23 02:12:25;;;;;;;38.22;15.77;;;;;;;10.70;70.84;100826.97;5034059;28;20030;-81
2023/04/23 02:14:52;;;;;;;52.05;16.38;;;;;;;10.64;70.81;100825.56;5032577;28;20091;-81
2023/04/23 02:17:20;;;;;;;36.85;15.15;;;;;;;10.73;70.95;100835.63;5030284;28;20037;-82
2023/04/23 02:19:46;;;;;;;30.92;12.65;;;;;;;10.79;70.88;100837.81;5014134;28;20492;-83
2023/04/23 02:22:11;;;;;;;29.23;11.77;;;;;;;10.79;70.54;100824.38;5012101;28;20037;-83
2023/04/23 02:24:37;;;;;;;26.83;9.65;;;;;;;10.78;70.17;100829.88;5014094;28;20846;-84
2023/04/23 02:27:03;;;;;;;21.30;8.35;;;;;;;10.76;69.13;100827.31;5014296;28;20026;-84
2023/04/23 02:29:29;;;;;;;35.38;8.98;;;;;;;10.75;68.95;100831.00;5014122;28;20084;-83
2023/04/23 02:31:55;;;;;;;30.50;10.50;;;;;;;10.75;68.85;100827.44;5013662;28;20030;-81
2023/04/23 02:34:20;;;;;;;23.48;9.40;;;;;;;10.75;68.57;100833.69;5009600;28;20125;-82
2023/04/23 02:36:45;;;;;;;39.10;12.65;;;;;;;10.67;68.71;100824.50;5002096;28;20094;-82
2023/04/23 02:39:11;;;;;;;34.17;12.73;;;;;;;10.62;69.53;100830.22;5000144;28;20023;-81
2023/04/23 02:41:36;;;;;;;35.92;15.77;;;;;;;10.66;69.42;100834.41;4993817;28;20214;-81
2023/04/23 02:44:02;;;;;;;54.65;18.58;;;;;;;10.64;69.72;100830.97;4992846;28;20065;-82
2023/04/23 02:46:27;;;;;;;52.33;20.05;;;;;;;10.72;69.92;100836.63;4991995;28;20053;-82
2023/04/23 02:48:53;;;;;;;47.28;21.80;;;;;;;10.68;69.96;100837.81;4994327;28;20361;-82
2023/04/23 02:51:18;;;;;;;45.63;21.48;;;;;;;10.62;70.13;100835.63;4995704;28;20077;-81
2023/04/23 02:53:44;;;;;;;50.33;22.42;;;;;;;10.70;70.36;100840.41;5009346;28;20037;-80
2023/04/23 02:56:09;;;;;;;47.45;23.73;;;;;;;10.68;70.68;100836.97;5023777;28;20032;-81
2023/04/23 02:58:35;;;;;;;51.05;26.10;;;;;;;10.65;70.75;100831.81;5017195;28;20022;-83
2023/04/23 03:01:01;;;;;;;57.63;28.70;;;;;;;10.56;71.19;100829.84;5012361;28;20056;-82
2023/04/23 03:03:30;;;;;;;69.35;30.48;;;;;;;10.51;71.24;100835.59;5015267;28;20040;-83
2023/04/23 03:05:56;;;;;;;63.28;35.15;;;;;;;10.47;71.58;100839.50;5011195;28;20041;-82
2023/04/23 03:08:22;;;;;;;68.60;39.17;;;;;;;10.40;71.95;100840.09;5028351;28;20025;-81
2023/04/23 03:10:47;;;;;;;67.35;36.53;;;;;;;10.35;72.13;100837.75;5029804;28;20045;-81
2023/04/23 03:13:13;;;;;;;68.90;36.42;;;;;;;10.34;72.37;100834.22;5014736;28;20056;-82
2023/04/23 03:15:40;;;;;;;62.95;30.23;;;;;;;10.35;72.43;100840.44;5010749;28;20469;-85
2023/04/23 03:18:07;;;;;;;44.92;25.70;;;;;;;10.30;72.03;100837.28;5010065;28;20037;-84
2023/04/23 03:20:33;;;;;;;43.65;23.35;;;;;;;10.28;71.80;100840.06;4975038;28;20042;-82
2023/04/23 03:22:58;;;;;;;45.47;22.27;;;;;;;10.28;72.50;100847.25;5010352;28;20481;-79
2023/04/23 03:25:24;;;;;;;57.58;20.52;;;;;;;10.26;71.92;100839.34;5010233;28;20038;-83
2023/04/23 03:27:51;;;;;;;37.00;18.58;;;;;;;10.25;71.77;100839.44;5010216;28;20030;-82
2023/04/23 03:30:17;;;;;;;34.80;16.58;;;;;;;10.26;72.02;100842.03;5010048;28;20060;-82
2023/04/23 03:32:42;;;;;;;37.55;16.85;;;;;;;10.16;72.10;100829.38;5007047;28;20124;-82
2023/04/23 03:35:08;;;;;;;37.15;16.15;;;;;;;10.23;72.02;100852.16;5009878;28;20589;-83
2023/04/23 03:37:34;;;;;;;43.60;16.08;;;;;;;10.24;72.12;100851.19;5008970;28;20033;-82
2023/04/23 03:40:02;;;;;;;31.35;13.30;;;;;;;10.24;72.13;100843.13;5009716;28;20034;-83
2023/04/23 03:42:27;;;;;;;42.17;15.90;;;;;;;10.24;71.97;100852.00;5010401;28;20030;-84
2023/04/23 03:44:53;;;;;;;35.97;14.40;;;;;;;10.38;71.56;100857.22;5010345;28;20040;-84
2023/04/23 03:47:18;;;;;;;35.55;13.38;;;;;;;10.46;71.12;100853.91;5009887;28;20026;-83
2023/04/23 03:49:44;;;;;;;28.73;13.10;;;;;;;10.51;70.94;100851.75;5009521;28;20030;-87
2023/04/23 03:52:09;;;;;;;39.05;13.95;;;;;;;10.60;70.54;100858.22;5009239;28;20221;-82
2023/04/23 03:54:35;;;;;;;43.30;14.93;;;;;;;10.66;70.35;100861.31;5009371;28;20037;-84
2023/04/23 03:57:00;;;;;;;33.33;15.23;;;;;;;10.61;70.86;100858.09;5008930;28;20100;-84
2023/04/23 03:59:26;;;;;;;25.45;13.50;;;;;;;10.65;70.36;100864.09;5009126;28;20044;-83
2023/04/23 04:01:51;;;;;;;43.47;14.40;;;;;;;10.73;70.51;100867.91;5009387;28;20044;-84
2023/04/23 04:04:17;;;;;;;41.72;14.98;;;;;;;10.76;70.29;100872.22;5015439;28;20140;-84
2023/04/23 04:06:42;;;;;;;32.53;14.13;;;;;;;10.77;70.44;100863.13;5023833;28;20084;-83
2023/04/23 04:09:08;;;;;;;33.25;14.20;;;;;;;10.81;69.91;100876.25;5019533;28;20068;-80
2023/04/23 04:11:34;;;;;;;25.58;14.68;;;;;;;10.80;70.01;100869.16;5010659;28;20030;-81
2023/04/23 04:13:59;;;;;;;33.58;12.75;;;;;;;10.91;69.97;100877.25;5012160;28;20263;-84
2023/04/23 04:16:24;;;;;;;30.17;14.13;;;;;;;10.93;69.59;100886.03;5021537;28;20096;-80
2023/04/23 04:18:50;;;;;;;39.88;15.90;;;;;;;11.02;69.92;100889.84;5009129;28;20038;-84
2023/04/23 04:21:17;;;;;;;45.15;17.15;;;;;;;11.09;69.32;100879.44;5008948;28;20440;-83
2023/04/23 04:23:44;;;;;;;46.10;17.63;;;;;;;11.15;69.43;100879.81;5009572;28;20103;-81
2023/04/23 04:26:09;;;;;;;46.90;20.00;;;;;;;11.18;69.44;100881.41;5009162;28;20034;-82
2023/04/23 04:28:36;;;;;;;42.22;18.42;;;;;;;11.26;69.70;100892.41;5009101;28;20037;-82
2023/04/23 04:31:05;;;;;;;46.40;20.42;;;;;;;11.17;69.65;100882.38;5009222;28;20053;-82
2023/04/23 04:33:31;;;;;;;61.15;21.90;;;;;;;11.30;69.53;100900.13;5007124;28;20041;-82
2023/04/23 04:35:59;;;;;;;71.50;22.55;;;;;;;11.34;69.43;100888.13;5009151;28;20034;-82
2023/04/23 04:38:24;;;;;;;49.03;24.35;;;;;;;11.44;69.20;100886.41;5009324;28;20132;-81
2023/04/23 04:40:50;;;;;;;49.60;24.38;;;;;;;11.47;69.20;100890.69;5010225;28;20136;-85
2023/04/23 04:43:16;;;;;;;58.65;25.33;;;;;;;11.53;69.13;100895.56;5007826;28;20076;-83
2023/04/23 04:45:41;;;;;;;49.20;26.15;;;;;;;11.56;68.94;100892.63;5008616;28;20160;-87
2023/04/23 04:48:07;;;;;;;56.05;28.08;;;;;;;11.64;69.19;100894.72;5008873;28;20445;-84
2023/04/23 04:50:33;;;;;;;55.80;27.73;;;;;;;11.73;68.81;100902.94;5009498;28;20138;-87
2023/04/23 04:52:59;;;;;;;50.55;29.88;;;;;;;11.85;68.74;100901.06;5009316;28;20540;-81
2023/04/23 04:55:24;;;;;;;56.25;28.77;;;;;;;11.86;69.15;100892.84;5008789;28;20683;-84
2023/04/23 04:57:49;;;;;;;47.95;28.55;;;;;;;11.94;68.63;100903.00;5009320;28;20516;-82
2023/04/23 05:00:25;;;;;;;50.38;28.05;;;;;;;12.04;68.80;100903.09;5008538;28;20022;-83
2023/04/23 05:02:51;;;;;;;52.67;27.45;;;;;;;12.15;68.30;100903.06;5025304;28;20418;-81
2023/04/23 05:05:17;;;;;;;52.60;29.15;;;;;;;12.22;68.06;100901.56;5023295;28;20065;-81
2023/04/23 05:07:43;;;;;;;57.70;29.98;;;;;;;12.36;67.70;100912.03;5011400;28;20076;-85
2023/04/23 05:10:09;;;;;;;69.80;31.92;;;;;;;12.41;67.52;100894.50;5012279;28;20033;-82
2023/04/23 05:12:36;;;;;;;60.97;34.13;;;;;;;12.51;66.98;100892.72;5011405;28;20504;-84
2023/04/23 05:15:03;;;;;;;73.47;38.33;;;;;;;12.60;66.98;100907.25;5011276;28;20366;-86
2023/04/23 05:17:28;;;;;;;82.65;38.45;;;;;;;12.73;66.97;100907.94;5009361;28;20025;-85
2023/04/23 05:19:54;;;;;;;69.70;43.50;;;;;;;12.74;66.90;100909.66;5008946;28;20044;-86
2023/04/23 05:22:19;;;;;;;81.97;48.95;;;;;;;12.74;66.89;100909.66;5007189;28;20053;-83
2023/04/23 05:24:45;;;;;;;74.78;49.20;;;;;;;12.90;66.65;100907.31;5008505;28;20113;-84
2023/04/23 05:27:11;;;;;;;87.35;52.83;;;;;;;12.94;66.46;100903.38;5006943;28;20034;-80
2023/04/23 05:29:36;;;;;;;107.30;57.08;;;;;;;13.08;66.24;100910.31;5007612;28;20108;-81
2023/04/23 05:32:02;;;;;;;96.22;55.78;;;;;;;13.24;65.95;100916.06;5008097;28;20022;-83
2023/04/23 05:34:27;;;;;;;95.35;56.15;;;;;;;13.39;65.78;100908.47;5008655;28;20030;-84
2023/04/23 05:36:52;;;;;;;98.53;60.03;;;;;;;13.45;65.55;100908.78;5023069;28;20033;-85
2023/04/23 05:39:18;;;;;;;101.15;63.00;;;;;;;13.55;64.95;100911.50;5024103;28;20461;-84
2023/04/23 05:41:43;;;;;;;89.78;57.72;;;;;;;13.61;65.13;100909.09;5007578;28;20343;-85
2023/04/23 05:44:09;;;;;;;95.55;59.42;;;;;;;13.79;64.62;100901.19;5007926;28;20053;-81
2023/04/23 05:46:34;;;;;;;93.10;57.35;;;;;;;13.93;64.50;100906.22;5008680;28;20056;-82
2023/04/23 05:49:00;;;;;;;90.60;56.13;;;;;;;14.06;64.11;100909.53;5007494;28;20041;-81
2023/04/23 05:51:26;;;;;;;97.63;55.72;;;;;;;14.19;63.86;100909.22;5008128;28;20501;-79
2023/04/23 05:53:51;;;;;;;86.55;52.05;;;;;;;14.13;63.12;100913.34;5009135;28;20026;-85
2023/04/23 05:56:17;;;;;;;98.25;55.50;;;;;;;14.21;63.63;100906.41;5009512;28;20034;-80
2023/04/23 05:58:42;;;;;;;96.43;51.25;;;;;;;14.42;63.53;100904.44;5015661;28;20018;-82
2023/04/23 06:01:08;;;;;;;90.22;51.13;;;;;;;14.48;63.46;100904.72;5025911;28;20030;-85
2023/04/23 06:03:35;;;;;;;76.68;49.70;;;;;;;14.64;62.78;100910.44;5007140;28;20408;-80
2023/04/23 06:06:01;;;;;;;83.72;47.92;;;;;;;14.79;62.16;100901.84;4989237;28;20058;-83
2023/04/23 06:08:26;;;;;;;79.63;41.35;;;;;;;14.84;61.21;100899.53;4988790;28;20451;-82
2023/04/23 06:10:52;;;;;;;73.38;44.38;;;;;;;14.95;61.24;100897.50;4993362;28;20535;-85
2023/04/23 06:13:17;;;;;;;72.22;39.85;;;;;;;15.04;60.48;100904.78;5017188;28;20054;-80
2023/04/23 06:15:43;;;;;;;79.40;42.05;;;;;;;15.14;60.57;100896.59;4999971;28;20033;-83
2023/04/23 06:18:09;;;;;;;64.68;37.88;;;;;;;15.31;60.05;100908.53;5000119;28;20030;-84
2023/04/23 06:20:34;;;;;;;73.03;38.58;;;;;;;15.34;59.71;100895.56;5012359;28;20026;-92
2023/04/23 06:23:01;;;;;;;56.40;32.15;;;;;;;15.54;59.58;100909.91;5014088;28;20292;-88
2023/04/23 06:25:27;;;;;;;63.22;31.50;;;;;;;15.48;59.24;100900.50;5013378;28;20040;-86
2023/04/23 06:27:52;;;;;;;52.47;31.08;;;;;;;15.67;58.87;100905.00;5018485;28;20080;-88
2023/04/23 06:30:18;;;;;;;57.78;30.45;;;;;;;15.84;58.56;100896.03;5015849;28;20049;-87
2023/04/23 06:32:43;;;;;;;41.25;24.60;;;;;;;15.93;57.67;100891.56;5030009;28;20456;-84
2023/04/23 06:35:09;;;;;;;58.88;24.30;;;;;;;16.11;57.11;100897.88;5012138;28;20103;-88
2023/04/23 06:37:34;;;;;;;40.55;23.63;;;;;;;16.32;56.58;100903.84;4993892;28;20045;-87
2023/04/23 06:40:00;;;;;;;51.63;24.02;;;;;;;16.49;56.52;100907.56;5013329;28;20026;-86
2023/04/23 06:42:25;;;;;;;61.17;26.50;;;;;;;16.59;56.22;100913.81;5015579;28;20030;-83
2023/04/23 06:44:50;;;;;;;57.22;28.05;;;;;;;16.73;56.28;100907.78;5013421;28;20092;-83
2023/04/23 06:47:16;;;;;;;51.40;24.80;;;;;;;16.93;55.32;100912.03;5014957;28;20022;-92
2023/04/23 06:49:41;;;;;;;59.28;25.55;;;;;;;17.07;55.01;100914.16;5023891;28;20049;-91
2023/04/23 06:52:07;;;;;;;39.85;22.25;;;;;;;17.02;54.46;100911.09;5021590;28;20084;-90
2023/04/23 06:54:53;;;;;;;57.03;22.08;;;;;;;17.17;54.76;100912.22;5031230;28;20036;-88
2023/04/23 07:03:48;;;;;;;46.10;19.25;;;;;;;17.48;53.04;100906.25;4916303;29;20566;-91
2023/04/23 07:06:14;;;;;;;47.30;21.77;;;;;;;17.65;52.54;100908.06;4918276;29;20044;-90
2023/04/23 07:08:40;;;;;;;35.78;17.20;;;;;;;17.69;51.63;100920.31;4918991;29;20037;-87
2023/04/23 07:11:06;;;;;;;85.90;16.35;;;;;;;17.73;50.89;100917.13;4913984;29;20055;-85
2023/04/23 07:13:32;;;;;;;43.78;15.75;;;;;;;17.71;50.57;100923.72;4899346;29;20112;-82
2023/04/23 07:16:00;;;;;;;42.55;14.85;;;;;;;17.65;50.61;100908.06;4910020;29;20037;-87
2023/04/23 07:18:25;;;;;;;44.55;14.93;;;;;;;17.61;50.65;100893.09;4921201;29;20056;-87
2023/04/23 07:20:51;;;;;;;36.47;14.45;;;;;;;17.57;50.36;100886.28;4915636;29;20049;-86
2023/04/23 07:23:17;;;;;;;38.10;16.15;;;;;;;17.90;50.29;100912.59;4929892;29;20616;-85
2023/04/23 07:25:45;;;;;;;49.95;12.60;;;;;;;17.81;48.98;100902.69;4927667;29;20032;-87
2023/04/23 07:28:10;;;;;;;42.40;13.50;;;;;;;17.86;49.45;100905.75;4923941;29;20108;-87
2023/04/23 07:30:36;;;;;;;25.50;7.45;;;;;;;17.95;47.54;100915.66;4916607;29;20086;-86
2023/04/23 07:33:02;;;;;;;65.50;13.18;;;;;;;18.05;47.41;100901.91;4916037;29;20535;-86
2023/04/23 07:35:27;;;;;;;38.63;12.48;;;;;;;18.10;47.80;100896.84;4916601;29;20483;-87
2023/04/23 07:37:54;;;;;;;26.23;7.40;;;;;;;18.06;46.56;100923.53;4927271;29;20419;-88
2023/04/23 07:40:21;;;;;;;27.05;6.93;;;;;;;17.77;45.97;100884.97;4967118;28;20041;-87
2023/04/23 07:42:47;;;;;;;38.95;6.75;;;;;;;17.46;46.45;100887.38;5016120;28;20069;-91
2023/04/23 07:45:16;;;;;;;17.58;6.00;;;;;;;17.52;46.20;100869.56;4990647;28;20104;-86
2023/04/23 07:47:45;;;;;;;23.67;5.95;;;;;;;17.77;46.39;100921.22;5026362;28;20040;-86
2023/04/23 07:50:11;;;;;;;16.50;5.78;;;;;;;17.79;46.55;100907.47;5030635;28;20073;-85
2023/04/23 07:52:37;;;;;;;29.98;6.25;;;;;;;17.92;46.40;100895.06;5030613;28;20040;-85
2023/04/23 07:55:02;;;;;;;35.50;6.78;;;;;;;17.92;45.98;100888.78;5025949;28;20467;-85
2023/04/23 07:57:28;;;;;;;28.05;6.75;;;;;;;17.69;46.37;100884.97;5012852;28;20044;-82
2023/04/23 07:59:53;;;;;;;21.60;6.57;;;;;;;17.78;46.07;100914.75;5011957;28;20454;-83
2023/04/23 08:02:38;;;;;;;20.70;5.70;;;;;;;17.49;46.41;100918.84;5012937;28;20030;-85
2023/04/23 08:06:01;;;;;;;;;;;;;;;;;;;;;
2023/04/23 08:11:31;;;;;;;21.73;6.88;;;;;;;17.45;48.32;100890.28;4918615;29;20277;-89
2023/04/23 08:13:57;;;;;;;39.65;9.10;;;;;;;17.63;48.19;100904.66;4904235;29;20134;-92
2023/04/23 08:16:22;;;;;;;39.95;7.75;;;;;;;17.78;48.13;100901.16;4898022;29;20173;-88
2023/04/23 08:18:48;;;;;;;24.00;7.38;;;;;;;18.00;47.88;100913.31;4895814;29;20041;-86
2023/04/23 08:21:13;;;;;;;29.60;7.30;;;;;;;18.16;47.14;100917.94;4892380;29;20547;-89
2023/04/23 08:23:39;;;;;;;40.28;7.72;;;;;;;18.26;46.88;100903.16;4892168;29;20603;-87
2023/04/23 08:26:04;;;;;;;28.05;6.75;;;;;;;18.16;46.41;100901.63;4892468;29;20127;-81
2023/04/23 08:28:30;;;;;;;30.40;7.35;;;;;;;18.14;46.15;100912.66;4893344;29;20048;-86
2023/04/23 08:30:55;;;;;;;22.90;6.43;;;;;;;18.29;45.97;100901.97;4892474;29;20459;-88
2023/04/23 08:33:21;;;;;;;28.05;5.47;;;;;;;18.47;45.52;100906.25;4892940;29;20090;-85
2023/04/23 08:35:47;;;;;;;30.65;7.60;;;;;;;18.56;45.29;100895.41;4891852;29;20056;-85
2023/04/23 08:38:12;;;;;;;17.17;5.63;;;;;;;18.73;44.78;100900.69;4892906;29;20029;-87
2023/04/23 08:40:41;;;;;;;32.72;7.47;;;;;;;18.79;44.20;100888.22;4893044;29;20037;-84
2023/04/23 08:43:17;;;;;;;21.17;5.95;;;;;;;18.66;44.63;100894.19;4893529;29;20589;-88
2023/04/23 08:45:46;;;;;;;29.58;8.18;;;;;;;18.67;45.03;100886.88;4952478;28;20540;-83
2023/04/23 08:48:12;;;;;;;23.30;6.60;;;;;;;18.63;44.95;100885.50;5008789;28;20037;-82
2023/04/23 08:50:42;;;;;;;25.95;6.55;;;;;;;18.90;44.64;100887.88;5026247;28;20149;-84
2023/04/23 08:53:08;;;;;;;118.40;16.73;;;;;;;18.72;44.50;100881.75;5009875;28;20120;-84
2023/04/23 08:55:34;;;;;;;24.70;6.57;;;;;;;18.89;44.78;100889.78;5008423;28;20551;-87
2023/04/23 08:58:01;;;;;;;24.00;6.60;;;;;;;18.96;44.49;100871.69;5010018;28;20040;-86
2023/04/23 09:00:28;;;;;;;28.55;6.70;;;;;;;19.16;44.22;100887.66;5008178;28;20524;-85
2023/04/23 09:02:55;;;;;;;51.53;7.90;;;;;;;19.13;43.70;100879.84;5009134;28;20057;-81
2023/04/23 09:05:20;;;;;;;49.10;7.90;;;;;;;19.25;43.50;100883.91;4992623;28;20037;-82
2023/04/23 09:07:46;;;;;;;38.35;7.28;;;;;;;19.39;43.95;100894.97;5024820;28;20827;-85
2023/04/23 09:10:13;;;;;;;22.25;6.18;;;;;;;19.52;43.75;100898.00;5010266;28;20034;-85
2023/04/23 09:12:40;;;;;;;24.50;6.75;;;;;;;19.55;42.82;100881.28;5006803;28;20026;-83
2023/04/23 09:15:11;;;;;;;21.45;5.47;;;;;;;19.73;43.40;100893.81;5008085;28;20025;-84
2023/04/23 09:17:45;;;;;;;28.35;6.93;;;;;;;19.38;43.98;100898.72;5008841;28;20107;-86
2023/04/23 09:20:11;;;;;;;147.82;19.10;;;;;;;19.37;43.99;100898.88;5008851;28;20026;-83
2023/04/23 09:22:47;;;;;;;16.52;5.35;;;;;;;19.04;43.83;100898.09;5009761;28;20401;-87
2023/04/23 09:25:16;;;;;;;18.88;5.88;;;;;;;19.08;43.57;100899.44;5011178;28;20041;-88
2023/04/23 09:27:42;;;;;;;21.63;7.30;;;;;;;18.94;44.25;100895.53;4973397;28;20092;-85
2023/04/23 09:30:09;;;;;;;28.10;6.72;;;;;;;18.88;44.30;100887.19;5009380;28;20464;-88
2023/04/23 09:32:40;;;;;;;23.63;5.97;;;;;;;18.90;44.48;100893.31;4994817;28;20137;-89
2023/04/23 09:35:09;;;;;;;21.25;5.78;;;;;;;18.96;44.14;100901.66;5016284;28;20026;-89
2023/04/23 09:37:35;;;;;;;36.47;6.85;;;;;;;18.89;43.96;100894.38;5020602;28;20030;-83
2023/04/23 09:40:04;;;;;;;21.80;6.75;;;;;;;18.73;43.81;100899.81;5017303;28;20396;-84
2023/04/23 09:42:31;;;;;;;363.52;131.18;;;;;;;18.62;44.32;100901.03;5009039;28;20444;-80
2023/04/23 09:45:03;;;;;;;30.95;9.55;;;;;;;18.54;44.74;100895.56;5017884;28;20034;-81
2023/04/23 09:47:33;;;;;;;18.63;5.60;;;;;;;18.35;44.76;100885.81;5019907;28;20026;-83
2023/04/23 09:49:59;;;;;;;15.85;6.38;;;;;;;18.28;44.97;100890.25;5015580;28;20045;-81
2023/04/23 09:52:25;;;;;;;34.80;8.18;;;;;;;18.61;44.64;100888.41;5026036;28;20044;-83
2023/04/23 09:54:51;;;;;;;37.90;10.13;;;;;;;18.70;45.19;100894.72;5032609;28;20056;-81
2023/04/23 09:57:17;;;;;;;36.00;14.75;;;;;;;18.91;43.96;100892.31;5030157;28;20060;-81
2023/04/23 09:59:42;;;;;;;315.67;162.27;;;;;;;18.92;44.27;100886.69;5031202;28;20030;-81
2023/04/23 10:02:10;;;;;;;249.20;124.28;;;;;;;18.98;44.43;100877.84;5031688;28;20033;-82
2023/04/23 10:04:37;;;;;;;62.10;22.80;;;;;;;19.25;43.69;100875.72;5033106;28;20459;-82
2023/04/23 10:07:07;;;;;;;50.92;14.20;;;;;;;19.46;43.44;100887.78;5044394;28;20025;-85
2023/04/23 10:09:33;;;;;;;29.70;5.88;;;;;;;19.28;42.50;100873.50;5037272;28;20029;-90
2023/04/23 10:12:03;;;;;;;36.63;7.45;;;;;;;19.31;42.83;100877.75;5039540;28;20120;-84
2023/04/23 10:14:30;;;;;;;47.65;9.40;;;;;;;19.28;42.72;100878.94;5031633;28;20021;-82
2023/04/23 10:17:03;;;;;;;19.70;6.90;;;;;;;19.40;42.93;100876.72;5033667;28;20030;-82
2023/04/23 10:19:30;;;;;;;23.98;6.13;;;;;;;19.17;42.72;100871.16;5030013;28;20030;-83
2023/04/23 10:22:06;;;;;;;52.13;9.23;;;;;;;19.16;43.10;100874.88;4976209;28;20046;-81
2023/04/23 10:24:34;;;;;;;14.98;5.75;;;;;;;19.13;42.94;100880.69;5011439;28;20088;-82
2023/04/23 10:27:03;;;;;;;30.80;6.70;;;;;;;19.18;42.90;100869.25;5012670;28;20088;-82
2023/04/23 10:29:32;;;;;;;31.50;5.75;;;;;;;19.13;42.82;100850.69;5013819;28;20021;-84
2023/04/23 10:32:03;;;;;;;22.63;6.38;;;;;;;19.29;42.78;100850.66;5011706;28;20034;-82
2023/04/23 10:34:30;;;;;;;42.20;9.18;;;;;;;19.23;42.94;100865.00;5011578;28;20091;-84
2023/04/23 10:36:58;;;;;;;23.63;6.25;;;;;;;18.90;43.48;100856.00;5010602;28;20030;-83
2023/04/23 10:39:29;;;;;;;38.13;6.20;;;;;;;18.63;44.03;100870.00;5018026;28;20480;-84
2023/04/23 10:41:56;;;;;;;38.05;7.32;;;;;;;18.54;44.56;100862.00;5029369;28;20022;-83
2023/04/23 10:44:21;;;;;;;34.65;8.10;;;;;;;18.39;44.86;100859.94;5021307;28;20037;-84
2023/04/23 10:46:52;;;;;;;35.13;7.45;;;;;;;18.31;45.89;100859.94;5011741;28;20431;-86
2023/04/23 10:49:17;;;;;;;43.55;15.07;;;;;;;18.33;47.16;100854.31;5014329;28;20061;-84
2023/04/23 10:51:47;;;;;;;24.77;7.72;;;;;;;18.64;45.88;100851.81;5015174;28;20050;-81
2023/04/23 10:54:18;;;;;;;26.90;6.28;;;;;;;18.78;44.21;100853.81;5014921;28;20065;-84
2023/04/23 10:56:44;;;;;;;24.08;7.40;;;;;;;18.70;44.53;100854.69;5009473;28;20040;-82
2023/04/23 10:59:30;;;;;;;29.40;7.60;;;;;;;18.94;44.42;100851.94;5017116;28;20026;-82
2023/04/23 11:01:58;;;;;;;18.52;6.28;;;;;;;19.07;43.39;100842.38;5010972;28;20088;-81
2023/04/23 11:04:28;;;;;;;22.60;6.65;;;;;;;19.27;43.25;100854.56;5007982;28;20059;-81
2023/04/23 11:06:56;;;;;;;27.85;6.38;;;;;;;19.43;42.65;100849.09;5010268;28;20029;-78
2023/04/23 11:09:28;;;;;;;24.15;6.40;;;;;;;19.41;42.98;100851.16;5010629;28;20565;-83
2023/04/23 11:11:57;;;;;;;27.10;5.67;;;;;;;19.54;42.47;100848.69;5010772;28;20092;-80
2023/04/23 11:14:56;;;;;;;34.22;5.90;;;;;;;19.90;42.16;100840.84;5023448;28;20036;-82
2023/04/23 11:17:28;;;;;;;15.60;5.13;;;;;;;20.10;41.76;100842.06;4949600;29;20105;-83
2023/04/23 11:20:02;;;;;;;17.13;5.20;;;;;;;19.99;41.13;100801.53;4949562;29;20027;-82